Time;durP1;ratioP1;P1;durP2;ratioP2;P2;SDS_P1;SDS_P2;PMS_P1;PMS_P2;Temp;Humidity;BMP_temperature;BMP_pressure;BME280_temperature;BME280_humidity;BME280_pressure;Samples;Min_cycle;Max_cycle;Signal;HPM_P1;HPM_P2
2024/01/12 00:00:32;;;;;;;215.55;86.55;;;-3.10;99.90;;;;;;5098222;28;20036;-54
2024/01/12 00:02:58;;;;;;;253.93;100.18;;;-3.00;99.90;;;;;;5098323;28;20089;-54
2024/01/12 00:05:23;;;;;;;148.00;59.70;;;-3.00;99.90;;;;;;5098044;28;20031;-54
2024/01/12 00:07:49;;;;;;;98.90;42.17;;;-3.00;99.90;;;;;;5097994;28;20064;-54
2024/01/12 00:10:15;;;;;;;96.07;37.58;;;-3.00;99.90;;;;;;5098115;28;20085;-54
2024/01/12 00:12:41;;;;;;;123.22;55.20;;;-3.00;99.90;;;;;;5097967;28;20071;-54
2024/01/12 00:15:08;;;;;;;139.43;59.38;;;-2.90;99.90;;;;;;5098066;28;20443;-54
2024/01/12 00:17:34;;;;;;;130.18;52.35;;;-2.90;99.90;;;;;;5097873;28;20107;-54
2024/01/12 00:20:00;;;;;;;110.40;44.67;;;-2.90;99.90;;;;;;5097782;28;20500;-54
2024/01/12 00:22:25;;;;;;;111.00;43.67;;;-2.80;99.90;;;;;;5097788;28;20027;-54
2024/01/12 00:24:51;;;;;;;141.73;59.47;;;-2.90;99.90;;;;;;5097881;28;20454;-54
2024/01/12 00:27:17;;;;;;;144.13;64.78;;;-2.90;99.90;;;;;;5097665;28;20027;-54
2024/01/12 00:29:43;;;;;;;166.60;72.53;;;-2.90;99.90;;;;;;5097696;28;20494;-54
2024/01/12 00:32:09;;;;;;;313.42;98.13;;;-2.90;99.90;;;;;;5097738;28;20024;-54
2024/01/12 00:34:35;;;;;;;144.82;60.70;;;-2.80;99.90;;;;;;5097367;28;20035;-54
2024/01/12 00:37:01;;;;;;;83.28;36.33;;;-2.80;99.90;;;;;;5097369;28;20046;-54
2024/01/12 00:39:26;;;;;;;94.78;39.58;;;-2.90;99.90;;;;;;5097879;28;20091;-54
2024/01/12 00:41:52;;;;;;;95.80;41.55;;;-2.90;99.90;;;;;;5096605;28;20024;-54
2024/01/12 00:44:18;;;;;;;193.60;73.80;;;-2.90;99.90;;;;;;5097532;28;20432;-54
2024/01/12 00:46:50;;;;;;;146.07;59.60;;;-2.90;99.90;;;;;;5097266;28;20047;-54
2024/01/12 00:49:20;;;;;;;126.50;51.78;;;-2.80;99.90;;;;;;5097287;28;20031;-54
2024/01/12 00:51:46;;;;;;;103.50;43.10;;;-2.80;99.90;;;;;;5097298;28;20115;-54
2024/01/12 00:54:13;;;;;;;98.93;43.15;;;-2.90;99.90;;;;;;5097286;28;20420;-54
2024/01/12 00:56:38;;;;;;;119.82;47.53;;;-2.90;99.90;;;;;;5096968;28;20024;-54
2024/01/12 00:59:05;;;;;;;148.05;58.95;;;-2.90;99.90;;;;;;5097103;28;20023;-54
2024/01/12 01:01:32;;;;;;;127.35;52.35;;;-2.80;99.90;;;;;;5097271;28;20063;-54
2024/01/12 01:03:59;;;;;;;121.28;52.35;;;-2.90;99.90;;;;;;5096910;28;20031;-54
2024/01/12 01:06:25;;;;;;;123.90;55.38;;;-2.90;99.90;;;;;;5096911;28;20307;-54
2024/01/12 01:08:51;;;;;;;115.18;48.03;;;-2.90;99.90;;;;;;5096883;28;20485;-54
2024/01/12 01:11:17;;;;;;;132.23;56.03;;;-2.90;99.90;;;;;;5096899;28;20040;-54
2024/01/12 01:13:43;;;;;;;139.68;58.55;;;-2.80;99.90;;;;;;5096934;28;20050;-54
2024/01/12 01:16:09;;;;;;;143.40;62.20;;;-2.80;99.90;;;;;;5096631;28;20393;-54
2024/01/12 01:18:35;;;;;;;139.75;60.05;;;-2.80;99.90;;;;;;5096771;28;20078;-54
2024/01/12 01:21:01;;;;;;;125.65;52.22;;;-2.80;99.90;;;;;;5096853;28;20077;-54
2024/01/12 01:23:27;;;;;;;119.65;50.28;;;-2.70;99.90;;;;;;5096777;28;20012;-54
2024/01/12 01:25:55;;;;;;;102.57;44.70;;;-2.80;99.90;;;;;;5096566;28;20111;-54
2024/01/12 01:28:22;;;;;;;100.78;43.28;;;-2.90;99.90;;;;;;5095561;28;20028;-54
2024/01/12 01:30:48;;;;;;;189.95;65.03;;;-2.80;99.90;;;;;;5096732;28;20044;-54
2024/01/12 01:33:14;;;;;;;318.08;95.40;;;-2.80;99.90;;;;;;5096420;28;20085;-54
2024/01/12 01:35:40;;;;;;;236.90;76.03;;;-2.80;99.90;;;;;;5096383;28;20032;-54
2024/01/12 01:38:05;;;;;;;226.38;73.13;;;-2.80;99.90;;;;;;5096477;28;20492;-54
2024/01/12 01:40:31;;;;;;;191.88;65.13;;;-2.80;99.90;;;;;;5096331;28;20031;-54
2024/01/12 01:43:09;;;;;;;149.43;55.10;;;-2.80;99.90;;;;;;5096473;28;20046;-54
2024/01/12 01:45:36;;;;;;;141.70;51.17;;;-2.80;99.90;;;;;;5096325;28;20024;-54
2024/01/12 01:48:05;;;;;;;115.78;47.88;;;-2.80;99.90;;;;;;5096086;28;20066;-54
2024/01/12 01:50:31;;;;;;;127.68;52.13;;;-2.80;99.90;;;;;;5096593;28;20073;-54
2024/01/12 01:52:57;;;;;;;125.10;50.45;;;-2.80;99.90;;;;;;5096242;28;20052;-54
2024/01/12 01:55:23;;;;;;;128.52;49.33;;;-2.80;99.90;;;;;;5095964;28;20032;-54
2024/01/12 01:57:50;;;;;;;123.78;48.58;;;-2.90;99.90;;;;;;5096022;28;20032;-54
2024/01/12 02:00:18;;;;;;;120.47;47.00;;;-2.80;99.90;;;;;;5095792;28;20047;-54
2024/01/12 02:02:44;;;;;;;120.53;48.13;;;-2.80;99.90;;;;;;5095842;28;20158;-54
2024/01/12 02:05:11;;;;;;;104.97;43.97;;;-2.80;99.90;;;;;;5096026;28;20050;-54
2024/01/12 02:07:37;;;;;;;119.57;45.45;;;-2.70;99.90;;;;;;5095795;28;20053;-54
2024/01/12 02:10:04;;;;;;;105.53;45.20;;;-2.70;99.90;;;;;;5095694;28;20028;-54
2024/01/12 02:12:30;;;;;;;111.65;44.47;;;-2.70;99.90;;;;;;5095956;28;20020;-54
2024/01/12 02:14:56;;;;;;;116.03;48.40;;;-2.80;99.90;;;;;;5095799;28;20031;-54
2024/01/12 02:17:22;;;;;;;101.82;44.00;;;-2.80;99.90;;;;;;5095495;28;20034;-54
2024/01/12 02:19:48;;;;;;;102.90;44.65;;;-2.70;99.90;;;;;;5095592;28;20039;-54
2024/01/12 02:22:14;;;;;;;154.13;56.92;;;-2.70;99.90;;;;;;5095742;28;20028;-54
2024/01/12 02:24:40;;;;;;;162.50;61.88;;;-2.70;99.90;;;;;;5095453;28;20043;-54
2024/01/12 02:27:06;;;;;;;150.00;57.53;;;-2.80;99.90;;;;;;5095774;28;20754;-54
2024/01/12 02:29:32;;;;;;;141.70;55.67;;;-2.70;99.90;;;;;;5095659;28;20521;-54
2024/01/12 02:31:58;;;;;;;122.75;49.38;;;-2.80;99.90;;;;;;5095558;28;20043;-54
2024/01/12 02:34:24;;;;;;;114.57;46.72;;;-2.80;99.90;;;;;;5095351;28;20039;-54
2024/01/12 02:36:50;;;;;;;106.72;44.25;;;-2.80;99.90;;;;;;5095625;28;20103;-54
2024/01/12 02:39:16;;;;;;;102.72;43.55;;;-2.70;99.90;;;;;;5095463;28;20062;-54
2024/01/12 02:41:41;;;;;;;97.93;43.33;;;-2.60;99.90;;;;;;5095468;28;20039;-54
2024/01/12 02:44:07;;;;;;;100.03;42.20;;;-2.50;99.90;;;;;;5095445;28;20020;-54
2024/01/12 02:46:33;;;;;;;94.68;42.00;;;-2.50;99.90;;;;;;5093914;28;20044;-55
2024/01/12 02:48:59;;;;;;;102.50;42.92;;;-2.60;99.90;;;;;;5095277;28;20036;-54
2024/01/12 02:51:25;;;;;;;102.20;43.35;;;-2.60;99.90;;;;;;5095449;28;20032;-54
2024/01/12 02:53:51;;;;;;;101.47;44.15;;;-2.60;99.90;;;;;;5095361;28;20489;-54
2024/01/12 02:56:16;;;;;;;102.05;42.45;;;-2.70;99.90;;;;;;5092957;28;20472;-54
2024/01/12 02:58:42;;;;;;;97.60;42.15;;;-2.70;99.90;;;;;;5095159;28;20028;-54
2024/01/12 03:01:08;;;;;;;88.40;39.95;;;-2.70;99.90;;;;;;5095481;28;20020;-54
2024/01/12 03:03:34;;;;;;;100.15;43.10;;;-2.70;99.90;;;;;;5095221;28;20050;-54
2024/01/12 03:06:02;;;;;;;102.70;42.22;;;-2.70;99.90;;;;;;5097616;28;20063;-54
2024/01/12 03:08:28;;;;;;;89.72;38.55;;;-2.80;99.90;;;;;;5098930;28;20111;-54
2024/01/12 03:10:54;;;;;;;98.65;40.15;;;-2.80;99.90;;;;;;5099145;28;20055;-54
2024/01/12 03:13:20;;;;;;;87.57;39.38;;;-2.80;99.90;;;;;;5099151;28;20099;-54
2024/01/12 03:15:45;;;;;;;82.32;38.75;;;-2.90;99.90;;;;;;5099168;28;20473;-54
2024/01/12 03:18:11;;;;;;;86.43;37.15;;;-2.90;99.90;;;;;;5098755;28;20039;-54
2024/01/12 03:20:37;;;;;;;88.82;37.22;;;-2.90;99.90;;;;;;5099184;28;20032;-54
2024/01/12 03:23:03;;;;;;;90.22;40.65;;;-2.90;99.90;;;;;;5098905;28;20036;-54
2024/01/12 03:25:29;;;;;;;90.80;41.13;;;-2.90;99.90;;;;;;5098962;28;20031;-54
2024/01/12 03:27:54;;;;;;;142.68;59.08;;;-2.80;99.90;;;;;;5098927;28;20466;-54
2024/01/12 03:30:20;;;;;;;159.05;62.83;;;-2.80;99.90;;;;;;5099007;28;20035;-54
2024/01/12 03:32:46;;;;;;;142.60;59.70;;;-2.60;99.90;;;;;;5098824;28;20039;-54
2024/01/12 03:35:12;;;;;;;140.32;57.50;;;-2.60;99.90;;;;;;5098692;28;20469;-54
2024/01/12 03:37:38;;;;;;;132.82;56.80;;;-2.60;99.90;;;;;;5098743;28;20028;-54
2024/01/12 03:40:04;;;;;;;113.93;46.72;;;-2.50;99.90;;;;;;5098801;28;20039;-54
2024/01/12 03:42:30;;;;;;;105.18;45.72;;;-2.50;99.90;;;;;;5098982;28;20051;-54
2024/01/12 03:44:56;;;;;;;104.95;44.97;;;-2.40;99.90;;;;;;5098686;28;20031;-54
2024/01/12 03:47:22;;;;;;;97.18;41.80;;;-2.40;99.90;;;;;;5098354;28;20473;-54
2024/01/12 03:49:47;;;;;;;100.95;43.58;;;-2.50;99.90;;;;;;5098717;28;20020;-54
2024/01/12 03:52:13;;;;;;;110.90;47.42;;;-2.50;99.90;;;;;;5098583;28;20359;-54
2024/01/12 03:54:39;;;;;;;104.70;44.70;;;-2.50;99.90;;;;;;5098084;28;20039;-54
2024/01/12 03:57:05;;;;;;;95.85;42.50;;;-2.50;99.90;;;;;;5098404;28;20016;-54
2024/01/12 03:59:31;;;;;;;100.43;42.65;;;-2.50;99.90;;;;;;5098484;28;20026;-54
2024/01/12 04:01:56;;;;;;;102.85;44.95;;;-2.60;99.90;;;;;;5098191;28;20089;-54
2024/01/12 04:04:23;;;;;;;100.28;44.50;;;-2.50;99.90;;;;;;5098319;28;20397;-54
2024/01/12 04:06:49;;;;;;;103.47;45.63;;;-2.50;99.90;;;;;;5098261;28;20028;-54
2024/01/12 04:09:15;;;;;;;104.65;44.50;;;-2.50;99.90;;;;;;5097822;28;20075;-54
2024/01/12 04:11:42;;;;;;;114.85;46.97;;;-2.50;99.90;;;;;;5098077;28;20431;-54
2024/01/12 04:14:08;;;;;;;114.38;48.88;;;-2.40;99.90;;;;;;5098018;28;20084;-54
2024/01/12 04:16:34;;;;;;;107.22;47.08;;;-2.50;99.90;;;;;;5096765;28;20110;-54
2024/01/12 04:18:59;;;;;;;106.63;48.00;;;-2.40;99.90;;;;;;5097807;28;20028;-54
2024/01/12 04:21:26;;;;;;;114.15;48.45;;;-2.50;99.90;;;;;;5098018;28;20099;-54
2024/01/12 04:23:51;;;;;;;107.70;47.97;;;-2.50;99.90;;;;;;5097466;28;20036;-54
2024/01/12 04:26:17;;;;;;;118.68;52.03;;;-2.50;99.90;;;;;;5097848;28;20028;-54
2024/01/12 04:28:43;;;;;;;110.50;49.55;;;-2.50;99.90;;;;;;5097799;28;20458;-54
2024/01/12 04:31:09;;;;;;;125.97;52.45;;;-2.50;99.90;;;;;;5097692;28;20077;-54
2024/01/12 04:33:35;;;;;;;163.40;64.93;;;-2.50;99.90;;;;;;5097793;28;20021;-54
2024/01/12 04:36:01;;;;;;;177.57;72.47;;;-2.50;99.90;;;;;;5097557;28;20039;-54
2024/01/12 04:38:27;;;;;;;159.32;63.80;;;-2.40;99.90;;;;;;5097283;28;20499;-54
2024/01/12 04:40:54;;;;;;;138.88;57.42;;;-2.40;99.90;;;;;;5097846;28;20020;-54
2024/01/12 04:43:20;;;;;;;127.07;51.83;;;-2.50;99.90;;;;;;5097544;28;20028;-54
2024/01/12 04:45:46;;;;;;;129.23;52.03;;;-2.40;99.90;;;;;;5097224;28;20112;-54
2024/01/12 04:48:12;;;;;;;139.80;54.30;;;-2.40;99.90;;;;;;5097292;28;20023;-54
2024/01/12 04:50:37;;;;;;;128.32;52.00;;;-2.40;99.90;;;;;;5097557;28;20024;-54
2024/01/12 04:53:03;;;;;;;116.68;50.65;;;-2.40;99.90;;;;;;5097044;28;20113;-54
2024/01/12 04:55:29;;;;;;;121.47;49.85;;;-2.40;99.90;;;;;;5097066;28;20034;-54
2024/01/12 04:57:55;;;;;;;123.80;53.13;;;-2.40;99.90;;;;;;5097183;28;20074;-54
2024/01/12 05:00:21;;;;;;;127.82;55.75;;;-2.50;99.90;;;;;;5096993;28;20028;-54
2024/01/12 05:02:47;;;;;;;129.80;56.05;;;-2.40;99.90;;;;;;5097124;28;20081;-54
2024/01/12 05:05:13;;;;;;;121.90;53.08;;;-2.30;99.90;;;;;;5097113;28;20024;-54
2024/01/12 05:07:39;;;;;;;114.95;49.60;;;-2.10;99.90;;;;;;5096536;28;20078;-54
2024/01/12 05:10:05;;;;;;;109.30;47.47;;;-2.00;99.90;;;;;;5097041;28;20040;-54
2024/01/12 05:12:31;;;;;;;103.40;45.10;;;-2.00;99.90;;;;;;5096991;28;20024;-54
2024/01/12 05:14:58;;;;;;;104.97;44.30;;;-2.20;99.90;;;;;;5096827;28;20028;-54
2024/01/12 05:17:24;;;;;;;99.88;43.55;;;-2.30;99.90;;;;;;5096660;28;20050;-54
2024/01/12 05:19:50;;;;;;;109.07;43.67;;;-2.20;99.90;;;;;;5096905;28;20161;-54
2024/01/12 05:22:16;;;;;;;93.03;43.05;;;-2.20;99.90;;;;;;5096490;28;20057;-54
2024/01/12 05:24:42;;;;;;;95.50;42.53;;;-2.30;99.90;;;;;;5096625;28;20040;-54
2024/01/12 05:27:08;;;;;;;83.07;36.00;;;-2.20;99.90;;;;;;5096657;28;20477;-54
2024/01/12 05:29:34;;;;;;;81.95;36.58;;;-2.10;99.90;;;;;;5096136;28;20024;-54
2024/01/12 05:32:01;;;;;;;137.57;58.30;;;-2.30;99.90;;;;;;5096604;28;20119;-54
2024/01/12 05:34:27;;;;;;;138.88;59.13;;;-2.30;99.90;;;;;;5096481;28;20063;-54
2024/01/12 05:36:53;;;;;;;118.68;51.35;;;-2.40;99.90;;;;;;5096267;28;20473;-54
2024/01/12 05:39:18;;;;;;;124.07;52.28;;;-2.40;99.90;;;;;;5096470;28;20032;-54
2024/01/12 05:41:44;;;;;;;123.65;51.95;;;-2.30;99.90;;;;;;5096928;28;20369;-54
2024/01/12 05:44:11;;;;;;;117.70;51.45;;;-2.30;99.90;;;;;;5096333;28;20024;-54
2024/01/12 05:46:39;;;;;;;118.35;51.53;;;-2.30;99.90;;;;;;5096089;28;20039;-54
2024/01/12 05:49:06;;;;;;;118.85;51.78;;;-2.30;99.90;;;;;;5096375;28;20416;-54
2024/01/12 05:51:31;;;;;;;138.20;57.95;;;-2.30;99.90;;;;;;5096218;28;20146;-54
2024/01/12 05:53:57;;;;;;;143.07;62.50;;;-2.30;99.90;;;;;;5095917;28;20447;-54
2024/01/12 05:56:23;;;;;;;127.35;54.53;;;-2.30;99.90;;;;;;5096197;28;20111;-54
2024/01/12 05:58:50;;;;;;;139.02;62.78;;;-2.20;99.90;;;;;;5095971;28;20016;-54
2024/01/12 06:01:17;;;;;;;152.52;62.65;;;-2.10;99.90;;;;;;5095722;28;20119;-54
2024/01/12 06:03:46;;;;;;;159.02;65.82;;;-2.10;99.90;;;;;;5094670;28;20118;-54
2024/01/12 06:06:11;;;;;;;155.68;65.15;;;-2.10;99.90;;;;;;5095253;28;20024;-54
2024/01/12 06:08:37;;;;;;;161.18;66.25;;;-2.10;99.90;;;;;;5094772;28;20031;-54
2024/01/12 06:11:04;;;;;;;160.55;67.10;;;-2.00;99.90;;;;;;5095358;28;20034;-54
2024/01/12 06:13:30;;;;;;;188.15;76.65;;;-2.00;99.90;;;;;;5095899;28;20032;-54
2024/01/12 06:15:56;;;;;;;183.60;82.40;;;-2.00;99.90;;;;;;5095602;28;20039;-54
2024/01/12 06:18:22;;;;;;;192.55;83.13;;;-2.00;99.90;;;;;;5094389;28;20040;-54
2024/01/12 06:20:48;;;;;;;181.18;77.88;;;-1.90;99.90;;;;;;5095238;28;20020;-54
2024/01/12 06:23:15;;;;;;;177.10;73.13;;;-1.90;99.90;;;;;;5096010;28;20028;-54
2024/01/12 06:25:40;;;;;;;180.77;75.80;;;-1.90;99.90;;;;;;5095680;28;20031;-54
2024/01/12 06:28:06;;;;;;;165.63;70.40;;;-2.00;99.90;;;;;;5094998;28;20031;-54
2024/01/12 06:30:32;;;;;;;188.95;78.88;;;-2.00;99.90;;;;;;5093521;28;20107;-54
2024/01/12 06:32:59;;;;;;;193.27;81.65;;;-2.10;99.90;;;;;;5088854;28;20078;-54
2024/01/12 06:35:25;;;;;;;186.10;76.38;;;-2.10;99.90;;;;;;5095093;28;20016;-54
2024/01/12 06:37:51;;;;;;;193.63;80.57;;;-2.10;99.90;;;;;;5094975;28;20028;-54
2024/01/12 06:40:17;;;;;;;227.32;92.18;;;-2.10;99.90;;;;;;5094583;28;20563;-54
2024/01/12 06:42:43;;;;;;;193.55;77.72;;;-2.10;99.90;;;;;;5093263;28;20027;-54
2024/01/12 06:45:11;;;;;;;194.38;80.93;;;-2.00;99.90;;;;;;5095262;28;20028;-54
2024/01/12 06:47:37;;;;;;;218.77;86.35;;;-2.00;99.90;;;;;;5095184;28;20095;-54
2024/01/12 06:50:03;;;;;;;236.80;89.90;;;-2.00;99.90;;;;;;5094967;28;20036;-54
2024/01/12 06:52:32;;;;;;;242.35;92.68;;;-2.00;99.90;;;;;;5093079;28;20073;-54
2024/01/12 06:54:58;;;;;;;235.45;93.75;;;-1.90;99.90;;;;;;5094152;28;20044;-54
2024/01/12 06:57:24;;;;;;;333.33;127.18;;;-1.90;99.90;;;;;;5093161;28;20023;-54
2024/01/12 06:59:50;;;;;;;419.98;175.20;;;-1.90;99.90;;;;;;5089722;28;20012;-54
2024/01/12 07:02:16;;;;;;;290.75;115.80;;;-2.00;99.90;;;;;;5079108;28;20537;-54
2024/01/12 07:04:42;;;;;;;263.48;102.40;;;-2.00;99.90;;;;;;5087665;28;20039;-54
2024/01/12 07:07:09;;;;;;;242.38;96.00;;;-2.00;99.90;;;;;;5094717;28;20039;-54
2024/01/12 07:09:35;;;;;;;243.48;93.82;;;-1.90;99.90;;;;;;5094978;28;20024;-54
2024/01/12 07:12:02;;;;;;;237.98;94.30;;;-1.80;99.90;;;;;;5094812;28;20443;-54
2024/01/12 07:14:28;;;;;;;231.60;88.72;;;-1.60;99.90;;;;;;5088332;28;20489;-54
2024/01/12 07:16:53;;;;;;;235.15;91.55;;;-1.70;99.90;;;;;;5086953;28;20075;-55
2024/01/12 07:19:19;;;;;;;275.80;105.70;;;-1.70;99.90;;;;;;5094538;28;20099;-54
2024/01/12 07:21:45;;;;;;;361.73;141.85;;;-1.70;99.90;;;;;;5093738;28;20020;-54
2024/01/12 07:24:11;;;;;;;315.98;126.50;;;-1.70;99.90;;;;;;5094857;28;20115;-54
2024/01/12 07:26:37;;;;;;;253.55;101.70;;;-1.70;99.90;;;;;;5095006;28;20036;-54
2024/01/12 07:29:03;;;;;;;194.18;80.30;;;-1.70;99.90;;;;;;5094605;28;20020;-54
2024/01/12 07:31:30;;;;;;;192.18;74.03;;;-1.70;99.90;;;;;;5094404;28;20435;-54
2024/01/12 07:33:55;;;;;;;246.30;99.80;;;-1.80;99.90;;;;;;5094846;28;20043;-54
2024/01/12 07:36:21;;;;;;;246.40;101.18;;;-1.80;99.90;;;;;;5094955;28;20024;-54
2024/01/12 07:38:47;;;;;;;252.35;102.90;;;-1.80;99.90;;;;;;5094849;28;20025;-54
2024/01/12 07:41:13;;;;;;;252.85;110.15;;;-1.80;99.90;;;;;;5094740;28;20056;-54
2024/01/12 07:43:39;;;;;;;223.07;100.68;;;-1.80;99.90;;;;;;5094810;28;20465;-54
2024/01/12 07:46:05;;;;;;;188.15;76.07;;;-1.70;99.90;;;;;;5094842;28;20035;-54
2024/01/12 07:48:31;;;;;;;182.40;72.50;;;-1.70;99.90;;;;;;5086623;28;20025;-54
2024/01/12 07:50:57;;;;;;;170.95;70.38;;;-1.60;99.90;;;;;;5084707;28;20040;-54
2024/01/12 07:53:22;;;;;;;181.07;71.95;;;-1.50;99.90;;;;;;5097171;28;20028;-54
2024/01/12 07:55:49;;;;;;;186.10;73.53;;;-1.50;99.90;;;;;;5097947;28;20032;-54
2024/01/12 07:58:18;;;;;;;193.70;74.57;;;-1.60;99.90;;;;;;5097952;28;20028;-54
2024/01/12 08:00:44;;;;;;;299.33;117.68;;;-1.50;99.90;;;;;;5095875;28;20043;-54
2024/01/12 08:03:10;;;;;;;341.67;129.90;;;-1.50;99.90;;;;;;5098341;28;20036;-54
2024/01/12 08:05:35;;;;;;;216.02;84.18;;;-1.50;99.90;;;;;;5098505;28;20032;-54
2024/01/12 08:08:02;;;;;;;236.55;94.40;;;-1.40;99.90;;;;;;5098439;28;20020;-54
2024/01/12 08:10:27;;;;;;;214.35;89.55;;;-1.20;99.90;;;;;;5098429;28;20024;-54
2024/01/12 08:12:53;;;;;;;269.77;106.13;;;-1.20;99.90;;;;;;5098347;28;20466;-54
2024/01/12 08:15:19;;;;;;;286.42;114.63;;;-1.30;99.90;;;;;;5098326;28;20020;-54
2024/01/12 08:17:45;;;;;;;239.40;97.35;;;-1.20;99.90;;;;;;5091368;28;20094;-54
2024/01/12 08:20:11;;;;;;;260.42;98.18;;;-1.10;99.90;;;;;;5081790;28;20119;-54
2024/01/12 08:22:37;;;;;;;245.73;98.85;;;-1.10;99.90;;;;;;5077523;28;20551;-54
2024/01/12 08:25:03;;;;;;;259.88;103.97;;;-1.10;99.90;;;;;;5077180;28;20036;-54
2024/01/12 08:27:29;;;;;;;270.70;102.53;;;-1.10;99.90;;;;;;5077205;28;20028;-54
2024/01/12 08:29:55;;;;;;;261.58;107.35;;;-1.00;99.90;;;;;;5077276;28;20036;-54
2024/01/12 08:32:21;;;;;;;251.02;103.38;;;-1.00;99.90;;;;;;5076687;28;20036;-54
2024/01/12 08:34:47;;;;;;;237.77;95.90;;;-1.00;99.90;;;;;;5076778;28;20033;-54
2024/01/12 08:37:13;;;;;;;227.55;93.53;;;-1.00;99.90;;;;;;5077186;28;20040;-54
2024/01/12 08:39:39;;;;;;;220.75;89.82;;;-1.00;99.90;;;;;;5077312;28;20040;-54
2024/01/12 08:42:06;;;;;;;220.00;96.28;;;-1.00;99.90;;;;;;5097416;28;20027;-54
2024/01/12 08:44:32;;;;;;;227.93;95.82;;;-1.00;99.90;;;;;;5097371;28;20105;-54
2024/01/12 08:46:58;;;;;;;222.95;95.80;;;-1.10;99.90;;;;;;5084909;28;20021;-54
2024/01/12 08:49:24;;;;;;;219.13;95.68;;;-0.90;99.90;;;;;;5096813;28;20051;-55
2024/01/12 08:51:51;;;;;;;223.95;93.43;;;-0.90;99.90;;;;;;5097338;28;20026;-54
2024/01/12 08:54:17;;;;;;;225.68;95.97;;;-0.90;99.90;;;;;;5093938;28;20068;-54
2024/01/12 08:56:43;;;;;;;220.65;92.78;;;-1.00;99.90;;;;;;5096428;28;20012;-55
2024/01/12 08:59:09;;;;;;;200.50;87.43;;;-0.80;99.90;;;;;;5088585;28;20036;-54
2024/01/12 09:01:35;;;;;;;199.10;87.18;;;-0.90;99.90;;;;;;5088790;28;20067;-54
2024/01/12 09:04:01;;;;;;;201.13;86.00;;;-0.80;99.90;;;;;;5096980;28;20020;-54
2024/01/12 09:06:28;;;;;;;191.52;75.72;;;-0.70;99.90;;;;;;5095270;28;20669;-54
2024/01/12 09:08:55;;;;;;;202.20;81.80;;;-0.80;99.90;;;;;;5089717;28;20020;-54
2024/01/12 09:11:20;;;;;;;201.85;84.72;;;-0.70;99.90;;;;;;5096093;28;20490;-54
2024/01/12 09:13:47;;;;;;;242.98;97.63;;;-0.70;99.90;;;;;;5096037;28;20021;-54
2024/01/12 09:16:13;;;;;;;242.05;102.03;;;-0.60;99.90;;;;;;5096173;28;20028;-54
2024/01/12 09:18:41;;;;;;;240.45;98.25;;;-0.70;99.90;;;;;;5096948;28;20489;-54
2024/01/12 09:21:07;;;;;;;279.70;110.97;;;-0.50;99.90;;;;;;5096013;28;20120;-54
2024/01/12 09:23:33;;;;;;;321.80;121.25;;;-0.40;99.90;;;;;;5095550;28;20052;-54
2024/01/12 09:25:59;;;;;;;325.95;122.85;;;-0.40;99.90;;;;;;5096551;28;20028;-54
2024/01/12 09:28:26;;;;;;;399.67;144.65;;;-0.20;99.90;;;;;;5095665;28;20135;-54
2024/01/12 09:30:52;;;;;;;264.42;102.80;;;-0.10;99.90;;;;;;5095721;28;20054;-54
2024/01/12 09:33:18;;;;;;;253.00;98.63;;;-0.20;99.90;;;;;;5095397;28;20032;-54
2024/01/12 09:35:44;;;;;;;195.60;78.82;;;-0.10;99.90;;;;;;5100603;28;20062;-54
2024/01/12 09:38:09;;;;;;;196.13;81.07;;;0.00;99.90;;;;;;5115819;28;20079;-54
2024/01/12 09:40:35;;;;;;;182.50;78.40;;;0.10;99.90;;;;;;5099611;28;20066;-54
2024/01/12 09:43:03;;;;;;;273.92;102.45;;;0.10;99.90;;;;;;5088126;28;20067;-54
2024/01/12 09:45:33;;;;;;;241.15;90.93;;;0.10;99.90;;;;;;5094403;28;20034;-54
2024/01/12 09:47:59;;;;;;;222.93;86.82;;;0.00;99.90;;;;;;5095729;28;20031;-54
2024/01/12 09:50:25;;;;;;;222.50;89.18;;;-0.10;99.90;;;;;;5094797;28;20374;-54
2024/01/12 09:52:51;;;;;;;194.77;79.85;;;-0.10;99.90;;;;;;5094321;28;20473;-54
2024/01/12 09:55:18;;;;;;;175.52;77.63;;;0.00;99.90;;;;;;5095425;28;20032;-54
2024/01/12 09:57:46;;;;;;;175.70;71.45;;;0.10;99.90;;;;;;5092326;28;20020;-54
2024/01/12 10:00:17;;;;;;;153.07;65.90;;;0.20;99.90;;;;;;5095293;28;20047;-54
2024/01/12 10:02:44;;;;;;;157.30;66.07;;;0.20;99.90;;;;;;5095258;28;20028;-54
2024/01/12 10:05:09;;;;;;;143.68;62.10;;;0.20;99.90;;;;;;5095181;28;20028;-54
2024/01/12 10:07:35;;;;;;;132.45;59.30;;;0.20;99.90;;;;;;5093233;28;20024;-54
2024/01/12 10:10:01;;;;;;;141.15;62.08;;;0.30;99.90;;;;;;5094191;28;20052;-54
2024/01/12 10:12:27;;;;;;;160.48;72.10;;;0.30;99.90;;;;;;5093527;28;20103;-54
2024/01/12 10:15:04;;;;;;;114.30;49.70;;;0.30;99.90;;;;;;5098168;28;20045;-54
2024/01/12 10:17:31;;;;;;;101.13;48.00;;;0.30;99.90;;;;;;5094458;28;20035;-54
2024/01/12 10:19:57;;;;;;;104.88;48.03;;;0.50;99.90;;;;;;5095024;28;20047;-54
2024/01/12 10:22:23;;;;;;;111.57;50.03;;;0.40;99.90;;;;;;5095819;28;20059;-54
2024/01/12 10:25:00;;;;;;;108.40;48.05;;;0.40;99.90;;;;;;5093706;28;20069;-54
2024/01/12 10:27:26;;;;;;;116.30;53.10;;;0.60;99.90;;;;;;5091778;28;20028;-54
2024/01/12 10:29:52;;;;;;;96.25;43.38;;;0.60;99.90;;;;;;5091381;28;20062;-54
2024/01/12 10:32:19;;;;;;;109.57;48.30;;;0.70;99.90;;;;;;5092826;28;20020;-54
2024/01/12 10:34:49;;;;;;;114.63;50.08;;;0.70;99.90;;;;;;5094561;28;20056;-54
2024/01/12 10:37:16;;;;;;;;;;;0.90;99.90;;;;;;5091716;28;20027;-54
2024/01/12 10:39:45;;;;;;;100.63;45.58;;;1.00;99.90;;;;;;5095227;28;19915;-54
2024/01/12 10:42:12;;;;;;;95.32;44.33;;;1.00;99.20;;;;;;5095058;28;20381;-54
2024/01/12 10:44:42;;;;;;;98.95;46.58;;;0.80;99.10;;;;;;5094916;28;20028;-54
2024/01/12 10:47:21;;;;;;;104.90;50.67;;;1.00;99.40;;;;;;5094780;28;20043;-54
2024/01/12 10:49:50;;;;;;;119.53;56.05;;;1.00;99.90;;;;;;5093665;28;20174;-54
2024/01/12 10:52:37;;;;;;;114.10;52.67;;;1.10;99.30;;;;;;5092781;28;20020;-54
2024/01/12 10:55:04;;;;;;;125.55;57.35;;;1.30;99.90;;;;;;5095533;28;20028;-54
2024/01/12 10:57:32;;;;;;;131.00;55.97;;;1.40;99.40;;;;;;5094897;28;20124;-54
2024/01/12 10:59:59;;;;;;;125.43;56.45;;;1.50;98.80;;;;;;5095008;28;20016;-54
2024/01/12 11:02:26;;;;;;;140.15;58.83;;;1.50;99.40;;;;;;5092789;28;20051;-54
2024/01/12 11:04:52;;;;;;;137.73;58.03;;;1.30;99.10;;;;;;5093030;28;20020;-54
2024/01/12 11:07:19;;;;;;;126.22;54.92;;;1.20;99.00;;;;;;5091652;28;20036;-55
2024/01/12 11:09:44;;;;;;;114.43;52.38;;;1.20;99.10;;;;;;5095233;28;20039;-54
2024/01/12 11:12:38;;;;;;;112.13;53.25;;;1.10;99.10;;;;;;5094509;28;20028;-54
2024/01/12 11:15:05;;;;;;;117.07;52.72;;;1.00;99.60;;;;;;5093587;28;20105;-54
2024/01/12 11:17:33;;;;;;;114.38;53.55;;;1.20;99.90;;;;;;5095145;28;20111;-54
2024/01/12 11:20:11;;;;;;;109.22;52.35;;;1.30;99.90;;;;;;5094496;28;20036;-54
2024/01/12 11:22:41;;;;;;;121.25;55.08;;;1.40;99.90;;;;;;5094435;28;20017;-54
2024/01/12 11:25:11;;;;;;;120.77;57.40;;;1.50;99.90;;;;;;5089475;28;20032;-54
2024/01/12 11:27:42;;;;;;;126.47;56.17;;;1.50;99.70;;;;;;5096051;28;20032;-55
2024/01/12 11:30:10;;;;;;;128.70;57.15;;;1.30;99.30;;;;;;5096493;28;20032;-54
2024/01/12 11:32:39;;;;;;;115.50;55.28;;;1.40;99.90;;;;;;5098024;28;20054;-55
2024/01/12 11:35:18;;;;;;;115.32;53.20;;;1.30;99.70;;;;;;5098341;28;20031;-55
2024/01/12 11:38:05;;;;;;;114.70;52.95;;;1.40;99.90;;;;;;5095271;28;20020;-54
2024/01/12 11:40:32;;;;;;;125.28;55.13;;;1.50;99.40;;;;;;5095677;28;20047;-55
2024/01/12 11:43:00;;;;;;;129.77;58.70;;;1.50;99.40;;;;;;5098131;28;20065;-55
2024/01/12 11:45:27;;;;;;;143.52;64.80;;;1.30;98.80;;;;;;5097563;28;20028;-55
2024/01/12 11:47:56;;;;;;;171.88;73.82;;;1.40;99.50;;;;;;5096131;28;20107;-55
2024/01/12 11:50:25;;;;;;;158.60;70.00;;;1.20;99.50;;;;;;5096783;28;20043;-55
2024/01/12 11:53:00;;;;;;;203.57;80.07;;;1.30;99.80;;;;;;5096942;28;20055;-55
2024/01/12 11:55:27;;;;;;;203.57;80.07;;;1.10;99.70;;;;;;5096982;28;20051;-55
2024/01/12 11:57:54;;;;;;;175.70;72.70;;;1.20;99.90;;;;;;5093449;28;20027;-55
2024/01/12 12:00:21;;;;;;;165.80;69.00;;;1.20;99.80;;;;;;5096746;28;20028;-55
2024/01/12 12:02:48;;;;;;;166.90;68.18;;;1.20;99.90;;;;;;5095149;28;20027;-55
2024/01/12 12:05:13;;;;;;;175.07;71.45;;;1.10;99.70;;;;;;5097233;28;20119;-55
2024/01/12 12:07:40;;;;;;;157.43;62.83;;;1.00;99.40;;;;;;5094232;28;20063;-55
2024/01/12 12:10:08;;;;;;;162.15;65.18;;;1.10;99.60;;;;;;5095971;28;20048;-55
2024/01/12 12:12:35;;;;;;;172.98;75.05;;;1.00;99.90;;;;;;5097323;28;20432;-55
2024/01/12 12:15:08;;;;;;;166.60;71.10;;;1.00;99.90;;;;;;5097488;28;20059;-55
2024/01/12 12:17:40;;;;;;;153.00;65.80;;;0.80;99.90;;;;;;5094797;28;20051;-55